createdAt,value
2018-12-14T00:00:56.560Z,12.23
2018-12-14T00:03:23.964Z,12.63
2018-12-14T00:05:51.384Z,12.10
2018-12-14T00:08:18.910Z,11.37
2018-12-14T00:10:46.341Z,12.00
2018-12-14T00:13:13.749Z,12.07
2018-12-14T00:15:41.172Z,11.90
2018-12-14T00:18:08.567Z,12.63
2018-12-14T00:20:35.996Z,13.10
2018-12-14T00:23:03.414Z,11.87
2018-12-14T00:25:30.831Z,12.73
2018-12-14T00:27:58.230Z,12.70
2018-12-14T00:30:25.708Z,13.20
2018-12-14T00:32:53.104Z,12.47
2018-12-14T00:35:20.675Z,12.47
2018-12-14T00:37:48.100Z,11.77
2018-12-14T00:40:15.530Z,12.17
2018-12-14T00:42:42.935Z,12.13
2018-12-14T00:45:10.366Z,11.80
2018-12-14T00:47:37.755Z,11.77
2018-12-14T00:50:06.355Z,11.83
2018-12-14T00:52:33.738Z,11.47
2018-12-14T00:55:01.145Z,11.73
2018-12-14T00:57:28.550Z,10.80
2018-12-14T00:59:56.033Z,11.10
2018-12-14T01:02:28.400Z,10.93
2018-12-14T01:04:56.519Z,10.83
2018-12-14T01:07:23.909Z,11.30
2018-12-14T01:09:51.339Z,10.93
2018-12-14T01:12:18.864Z,11.03
2018-12-14T01:14:46.427Z,11.23
2018-12-14T01:17:13.966Z,11.53
2018-12-14T01:19:41.411Z,10.83
2018-12-14T01:22:08.807Z,12.50
2018-12-14T01:24:36.229Z,11.47
2018-12-14T01:27:03.761Z,11.87
2018-12-14T01:29:31.248Z,12.13
2018-12-14T01:31:58.632Z,11.47
2018-12-14T01:34:26.061Z,11.80
2018-12-14T01:36:53.539Z,11.67
2018-12-14T01:39:21.045Z,12.30
2018-12-14T01:41:48.492Z,12.50
2018-12-14T01:44:15.938Z,11.53
2018-12-14T01:46:43.371Z,11.93
2018-12-14T01:49:10.760Z,11.93
2018-12-14T01:51:38.182Z,12.00
2018-12-14T01:54:05.621Z,11.57
2018-12-14T01:56:33.063Z,11.97
2018-12-14T01:59:00.440Z,12.60
2018-12-14T02:01:27.851Z,12.63
2018-12-14T02:03:55.260Z,12.00
2018-12-14T02:06:22.808Z,11.80
2018-12-14T02:08:50.298Z,12.77
2018-12-14T02:11:17.723Z,11.77
2018-12-14T02:13:45.186Z,11.00
2018-12-14T02:16:12.613Z,11.80
2018-12-14T02:18:40.003Z,11.57
2018-12-14T02:21:07.425Z,11.33
2018-12-14T02:23:34.819Z,10.80
2018-12-14T02:26:02.280Z,11.90
2018-12-14T02:28:29.744Z,12.03
2018-12-14T02:30:57.191Z,11.53
2018-12-14T02:33:24.596Z,12.10
2018-12-14T02:35:51.995Z,11.80
2018-12-14T02:38:19.408Z,12.33
2018-12-14T02:40:46.967Z,11.80
2018-12-14T02:43:14.521Z,11.73
2018-12-14T02:45:42.028Z,12.77
2018-12-14T02:48:09.542Z,12.40
2018-12-14T02:50:36.995Z,13.03
2018-12-14T02:53:04.404Z,11.53
2018-12-14T02:55:31.833Z,12.00
2018-12-14T02:57:59.241Z,13.07
2018-12-14T03:00:26.707Z,11.47
2018-12-14T03:02:54.121Z,12.60
2018-12-14T03:05:21.690Z,11.33
2018-12-14T03:07:49.111Z,12.17
2018-12-14T03:10:16.698Z,11.50
2018-12-14T03:12:44.122Z,12.10
2018-12-14T03:15:11.798Z,12.60
2018-12-14T03:17:39.349Z,12.60
2018-12-14T03:20:07.583Z,11.73
2018-12-14T03:22:35.232Z,11.43
2018-12-14T03:25:02.658Z,12.30
2018-12-14T03:27:30.053Z,11.33
2018-12-14T03:29:57.524Z,12.23
2018-12-14T03:32:24.925Z,11.43
2018-12-14T03:34:52.355Z,11.83
2018-12-14T03:37:19.896Z,11.73
2018-12-14T03:39:47.314Z,11.40
2018-12-14T03:42:14.986Z,12.03
2018-12-14T03:44:42.525Z,12.27
2018-12-14T03:47:09.936Z,12.53
2018-12-14T03:49:37.360Z,11.93
2018-12-14T03:52:04.932Z,11.67
2018-12-14T03:54:32.456Z,11.87
2018-12-14T03:56:59.891Z,12.40
2018-12-14T03:59:27.304Z,12.53
2018-12-14T04:01:54.753Z,12.07
2018-12-14T04:04:22.143Z,11.93
2018-12-14T04:06:49.555Z,12.00
2018-12-14T04:09:17.124Z,12.17
2018-12-14T04:11:44.537Z,12.30
2018-12-14T04:14:11.948Z,11.63
2018-12-14T04:16:39.388Z,12.37
2018-12-14T04:19:06.807Z,12.23
2018-12-14T04:21:34.219Z,12.33
2018-12-14T04:24:01.622Z,11.97
2018-12-14T04:26:29.085Z,12.50
2018-12-14T04:28:56.490Z,12.50
2018-12-14T04:31:23.904Z,12.53
2018-12-14T04:33:51.316Z,13.00
2018-12-14T04:36:18.739Z,13.00
2018-12-14T04:38:46.134Z,12.10
2018-12-14T04:41:13.552Z,13.07
2018-12-14T04:43:40.959Z,12.33
2018-12-14T04:46:08.397Z,11.83
2018-12-14T04:48:42.615Z,12.33
2018-12-14T04:51:10.049Z,12.97
2018-12-14T04:53:37.476Z,12.73
2018-12-14T04:56:04.934Z,13.10
2018-12-14T04:58:32.343Z,13.27
2018-12-14T05:00:59.764Z,11.97
2018-12-14T05:03:27.159Z,13.53
2018-12-14T05:05:54.569Z,12.27
2018-12-14T05:08:22.013Z,12.33
2018-12-14T05:10:49.452Z,12.87
2018-12-14T05:13:16.847Z,12.63
2018-12-14T05:15:44.277Z,13.13
2018-12-14T05:18:11.665Z,12.47
2018-12-14T05:20:39.098Z,13.13
2018-12-14T05:23:06.500Z,12.97
2018-12-14T05:25:33.934Z,12.83
2018-12-14T05:28:01.463Z,12.73
2018-12-14T05:30:29.042Z,12.93
2018-12-14T05:32:56.430Z,12.03
2018-12-14T05:35:23.940Z,13.60
2018-12-14T05:37:51.323Z,12.80
2018-12-14T05:40:18.719Z,11.67
2018-12-14T05:42:46.124Z,12.87
2018-12-14T05:45:13.512Z,12.70
2018-12-14T05:47:41.052Z,12.70
2018-12-14T05:50:08.577Z,12.77
2018-12-14T05:52:36.014Z,14.90
2018-12-14T05:55:04.360Z,13.80
2018-12-14T05:57:31.793Z,13.90
2018-12-14T05:59:59.197Z,13.23
2018-12-14T06:02:26.656Z,13.87
2018-12-14T06:04:54.060Z,14.00
2018-12-14T06:07:21.501Z,14.20
2018-12-14T06:09:48.883Z,13.97
2018-12-14T06:12:16.532Z,14.10
2018-12-14T06:14:43.942Z,13.67
2018-12-14T06:17:11.385Z,14.57
2018-12-14T06:19:38.772Z,13.60
2018-12-14T06:22:06.198Z,13.60
2018-12-14T06:24:33.599Z,13.67
2018-12-14T06:27:01.018Z,15.80
2018-12-14T06:29:28.399Z,13.83
2018-12-14T06:31:55.842Z,13.83
2018-12-14T06:34:23.255Z,14.87
2018-12-14T06:36:51.916Z,14.10
2018-12-14T06:39:19.666Z,15.20
2018-12-14T06:41:47.525Z,14.20
2018-12-14T06:44:14.922Z,13.50
2018-12-14T06:46:42.347Z,13.70
2018-12-14T06:49:09.823Z,13.83
2018-12-14T06:51:37.567Z,13.33
2018-12-14T06:54:05.160Z,13.13
2018-12-14T06:56:32.539Z,14.27
2018-12-14T06:58:59.945Z,14.10
2018-12-14T07:01:27.395Z,13.20
2018-12-14T07:03:54.808Z,13.57
2018-12-14T07:06:22.196Z,12.57
2018-12-14T07:08:49.620Z,12.87
2018-12-14T07:11:17.032Z,12.90
2018-12-14T07:13:44.465Z,13.40
2018-12-14T07:16:11.869Z,12.83
2018-12-14T07:18:39.325Z,13.67
2018-12-14T07:21:06.737Z,13.20
2018-12-14T07:23:40.767Z,13.50
2018-12-14T07:26:08.186Z,12.73
2018-12-14T07:28:35.604Z,13.47
2018-12-14T07:31:02.999Z,13.40
2018-12-14T07:33:30.403Z,12.93
2018-12-14T07:35:57.880Z,12.97
2018-12-14T07:38:25.315Z,12.90
2018-12-14T07:40:52.733Z,13.87
2018-12-14T07:43:20.161Z,13.27
2018-12-14T07:45:47.663Z,12.83
2018-12-14T07:48:15.117Z,13.13
2018-12-14T07:50:42.540Z,13.33
2018-12-14T07:53:09.971Z,13.10
2018-12-14T07:55:37.373Z,13.37
2018-12-14T07:58:04.805Z,13.07
2018-12-14T08:00:32.228Z,11.73
2018-12-14T08:02:59.636Z,13.07
2018-12-14T08:05:27.043Z,13.00
2018-12-14T08:07:54.447Z,13.37
2018-12-14T08:10:22.119Z,13.30
2018-12-14T08:12:50.141Z,13.03
2018-12-14T08:15:18.041Z,13.13
2018-12-14T08:17:45.443Z,13.17
2018-12-14T08:20:17.110Z,13.30
2018-12-14T08:22:42.304Z,13.50
2018-12-14T08:25:09.939Z,13.30
2018-12-14T08:27:37.369Z,13.50
2018-12-14T08:30:05.712Z,13.17
2018-12-14T08:32:33.107Z,12.33
2018-12-14T08:35:00.554Z,13.83
2018-12-14T08:37:28.051Z,13.37
2018-12-14T08:39:55.505Z,13.37
2018-12-14T08:42:29.544Z,12.60
2018-12-14T08:44:56.960Z,13.00
2018-12-14T08:47:24.498Z,12.53
2018-12-14T08:49:51.908Z,13.97
2018-12-14T08:52:19.308Z,12.37
2018-12-14T08:54:46.728Z,13.80
2018-12-14T08:57:14.160Z,13.93
2018-12-14T08:59:41.605Z,13.87
2018-12-14T09:02:09.014Z,13.93
2018-12-14T09:04:36.444Z,14.50
2018-12-14T09:07:03.890Z,13.60
2018-12-14T09:09:31.299Z,14.10
2018-12-14T09:11:58.720Z,13.70
2018-12-14T09:14:26.203Z,14.27
2018-12-14T09:16:53.818Z,14.93
2018-12-14T09:19:21.228Z,14.43
2018-12-14T09:21:48.653Z,13.87
2018-12-14T09:24:16.171Z,13.07
2018-12-14T09:26:43.620Z,14.13
2018-12-14T09:29:11.471Z,13.80
2018-12-14T09:31:39.320Z,14.77
2018-12-14T09:34:06.816Z,14.77
2018-12-14T09:36:34.420Z,14.90
2018-12-14T09:39:02.230Z,14.63
2018-12-14T09:41:29.615Z,13.63
2018-12-14T09:43:57.070Z,14.47
2018-12-14T09:46:24.481Z,14.50
2018-12-14T09:48:51.989Z,14.27
2018-12-14T09:51:19.407Z,14.70
2018-12-14T09:53:46.825Z,14.27
2018-12-14T09:56:14.436Z,14.50
2018-12-14T09:58:41.838Z,14.40
2018-12-14T10:01:09.294Z,14.07
2018-12-14T10:03:36.832Z,14.50
2018-12-14T10:06:04.260Z,14.47
2018-12-14T10:08:31.692Z,14.47
2018-12-14T10:10:59.158Z,14.97
2018-12-14T10:13:26.764Z,14.77
2018-12-14T10:15:54.635Z,17.80
2018-12-14T10:18:22.040Z,14.57
2018-12-14T10:20:49.460Z,15.67
2018-12-14T10:23:16.848Z,14.87
2018-12-14T10:25:44.276Z,16.07
2018-12-14T10:28:11.682Z,15.17
2018-12-14T10:30:39.112Z,14.17
2018-12-14T10:33:06.526Z,14.37
2018-12-14T10:35:34.082Z,15.60
2018-12-14T10:38:01.508Z,21.67
2018-12-14T10:40:28.935Z,13.60
2018-12-14T10:42:56.357Z,14.63
2018-12-14T10:45:25.120Z,14.27
2018-12-14T10:47:52.657Z,14.97
2018-12-14T10:50:20.082Z,13.97
2018-12-14T10:52:47.516Z,14.23
2018-12-14T10:55:14.960Z,14.80
2018-12-14T10:57:42.709Z,14.53
2018-12-14T11:01:22.572Z,15.27
2018-12-14T11:03:49.972Z,14.40
2018-12-14T11:06:17.958Z,14.37
2018-12-14T11:08:45.392Z,14.30
2018-12-14T11:11:12.832Z,14.87
2018-12-14T11:13:40.240Z,14.93
2018-12-14T11:16:07.661Z,14.80
2018-12-14T11:18:35.097Z,15.60
2018-12-14T11:21:02.577Z,15.03
2018-12-14T11:23:29.963Z,14.90
2018-12-14T11:25:57.392Z,14.57
2018-12-14T11:28:24.863Z,14.17
2018-12-14T11:30:52.286Z,14.87
2018-12-14T11:33:19.684Z,14.57
2018-12-14T11:35:47.314Z,14.50
2018-12-14T11:38:14.684Z,14.37
2018-12-14T11:40:42.103Z,14.97
2018-12-14T11:43:09.515Z,15.60
2018-12-14T11:45:36.948Z,14.83
2018-12-14T11:48:04.345Z,15.30
2018-12-14T11:50:31.776Z,14.33
2018-12-14T11:52:59.156Z,13.97
2018-12-14T11:55:26.606Z,14.77
2018-12-14T11:57:54.009Z,15.73
2018-12-14T12:00:21.407Z,15.13
2018-12-14T12:02:48.840Z,14.93
2018-12-14T12:05:16.248Z,14.00
2018-12-14T12:07:44.015Z,15.33
2018-12-14T12:10:11.448Z,14.70
2018-12-14T12:12:39.155Z,15.90
2018-12-14T12:15:06.819Z,14.27
2018-12-14T12:17:36.149Z,15.33
2018-12-14T12:20:04.111Z,14.73
2018-12-14T12:22:31.512Z,14.43
2018-12-14T12:24:58.900Z,14.87
2018-12-14T12:27:26.440Z,15.30
2018-12-14T12:29:53.839Z,14.60
2018-12-14T12:32:21.273Z,14.20
2018-12-14T12:34:48.756Z,14.27
2018-12-14T12:37:16.175Z,14.77
2018-12-14T12:39:43.564Z,14.33
2018-12-14T12:42:11.028Z,14.50
2018-12-14T12:44:45.103Z,13.60
2018-12-14T12:47:12.542Z,14.60
2018-12-14T12:49:39.957Z,15.53
2018-12-14T12:52:07.422Z,15.00
2018-12-14T12:54:34.907Z,14.93
2018-12-14T12:57:02.369Z,14.73
2018-12-14T12:59:30.027Z,13.97
2018-12-14T13:01:57.790Z,14.83
2018-12-14T13:04:25.214Z,14.60
2018-12-14T13:06:52.773Z,14.37
2018-12-14T13:09:20.287Z,15.73
2018-12-14T13:11:47.708Z,15.30
2018-12-14T13:14:15.111Z,14.87
2018-12-14T13:16:42.552Z,14.17
2018-12-14T13:19:09.948Z,14.67
2018-12-14T13:21:37.353Z,14.53
2018-12-14T13:24:04.757Z,15.07
2018-12-14T13:26:32.204Z,14.80
2018-12-14T13:28:59.597Z,15.83
2018-12-14T13:31:27.056Z,15.47
2018-12-14T13:33:54.453Z,14.60
2018-12-14T13:36:22.056Z,15.43
2018-12-14T13:38:49.478Z,16.00
2018-12-14T13:41:16.908Z,15.87
2018-12-14T13:43:44.296Z,15.57
2018-12-14T13:46:11.715Z,15.80
2018-12-14T13:48:39.151Z,15.33
2018-12-14T13:51:06.585Z,16.13
2018-12-14T13:53:34.064Z,16.60
2018-12-14T13:56:01.479Z,15.17
2018-12-14T13:58:28.934Z,15.27
2018-12-14T14:00:56.343Z,15.07
2018-12-14T14:03:23.764Z,14.90
2018-12-14T14:05:51.154Z,14.70
2018-12-14T14:08:18.605Z,14.53
2018-12-14T14:10:46.005Z,14.53
2018-12-14T14:13:13.474Z,15.00
2018-12-14T14:15:40.885Z,15.03
2018-12-14T14:18:08.347Z,13.90
2018-12-14T14:20:35.772Z,15.27
2018-12-14T14:23:03.226Z,17.97
2018-12-14T14:25:30.850Z,15.87
2018-12-14T14:27:58.308Z,15.60
2018-12-14T14:30:25.718Z,16.40
2018-12-14T14:32:53.167Z,16.73
2018-12-14T14:35:20.671Z,15.23
2018-12-14T14:37:48.084Z,15.00
2018-12-14T14:40:15.474Z,15.13
2018-12-14T14:42:42.922Z,14.93
2018-12-14T14:45:10.336Z,15.60
2018-12-14T14:47:37.797Z,15.73
2018-12-14T14:50:07.371Z,17.53
2018-12-14T14:52:34.914Z,16.40
2018-12-14T14:55:02.564Z,16.20
2018-12-14T14:57:30.438Z,14.97
2018-12-14T14:59:57.830Z,15.63
2018-12-14T15:02:25.281Z,15.63
2018-12-14T15:04:52.737Z,19.47
2018-12-14T15:07:20.193Z,17.07
2018-12-14T15:09:47.600Z,16.00
2018-12-14T15:12:15.034Z,15.93
2018-12-14T15:14:42.471Z,15.33
2018-12-14T15:17:09.884Z,17.30
2018-12-14T15:19:37.297Z,17.70
2018-12-14T15:22:04.932Z,18.13
2018-12-14T15:24:32.617Z,18.70
2018-12-14T15:27:00.079Z,16.73
2018-12-14T15:29:27.513Z,17.57
2018-12-14T15:31:55.264Z,17.20
2018-12-14T15:34:22.715Z,17.83
2018-12-14T15:36:50.135Z,17.97
2018-12-14T15:39:17.572Z,15.93
2018-12-14T15:41:44.997Z,16.23
2018-12-14T15:44:12.461Z,18.17
2018-12-14T15:46:39.861Z,15.23
2018-12-14T15:49:07.314Z,16.23
2018-12-14T15:51:34.713Z,14.83
2018-12-14T15:54:02.148Z,15.30
2018-12-14T15:56:29.701Z,14.03
2018-12-14T15:58:57.148Z,13.70
2018-12-14T16:01:24.684Z,14.60
2018-12-14T16:03:52.212Z,16.67
2018-12-14T16:06:19.620Z,14.10
2018-12-14T16:08:47.073Z,14.20
2018-12-14T16:11:14.494Z,12.47
2018-12-14T16:13:42.093Z,15.60
2018-12-14T16:16:09.480Z,15.07
2018-12-14T16:18:36.945Z,12.90
2018-12-14T16:21:04.584Z,14.47
2018-12-14T16:23:32.038Z,14.67
2018-12-14T16:25:59.460Z,13.23
2018-12-14T16:28:26.867Z,14.10
2018-12-14T16:30:54.276Z,14.07
2018-12-14T16:33:21.793Z,15.87
2018-12-14T16:35:49.392Z,13.57
2018-12-14T16:38:16.797Z,12.03
2018-12-14T16:40:44.256Z,13.03
2018-12-14T16:45:45.945Z,12.70
2018-12-14T16:48:13.667Z,16.10
2018-12-14T16:50:41.125Z,14.43
2018-12-14T16:53:08.527Z,12.67
2018-12-14T16:55:35.993Z,12.87
2018-12-14T16:58:03.527Z,14.70
2018-12-14T17:00:30.999Z,12.43
2018-12-14T17:02:58.645Z,12.20
2018-12-14T17:05:26.102Z,13.23
2018-12-14T17:07:53.496Z,12.07
2018-12-14T17:10:20.979Z,13.23
2018-12-14T17:12:48.391Z,12.97
2018-12-14T17:15:15.847Z,14.53
2018-12-14T17:17:43.263Z,14.40
2018-12-14T17:20:10.841Z,16.03
2018-12-14T17:22:38.252Z,14.23
2018-12-14T17:25:06.652Z,15.03
2018-12-14T17:27:34.052Z,13.63
2018-12-14T17:30:01.492Z,13.97
2018-12-14T17:32:29.164Z,20.27
2018-12-14T17:34:56.788Z,18.47
2018-12-14T17:37:24.191Z,16.27
2018-12-14T17:39:51.658Z,16.40
2018-12-14T17:42:19.167Z,15.03
2018-12-14T17:44:46.612Z,17.30
2018-12-14T17:47:14.031Z,15.53
2018-12-14T17:49:41.500Z,15.97
2018-12-14T17:52:08.887Z,15.87
2018-12-14T17:54:36.325Z,15.80
2018-12-14T17:57:03.712Z,17.27
2018-12-14T17:59:31.152Z,15.03
2018-12-14T18:01:58.574Z,16.20
2018-12-14T18:04:26.027Z,17.60
2018-12-14T18:06:53.438Z,22.77
2018-12-14T18:09:20.907Z,20.90
2018-12-14T18:11:48.316Z,16.50
2018-12-14T18:14:15.780Z,16.83
2018-12-14T18:16:43.215Z,16.00
2018-12-14T18:19:10.995Z,17.93
2018-12-14T18:21:38.388Z,17.07
2018-12-14T18:24:05.837Z,15.80
2018-12-14T18:26:33.239Z,16.20
2018-12-14T18:29:00.716Z,16.53
2018-12-14T18:31:28.111Z,16.87
2018-12-14T18:33:55.548Z,16.70
2018-12-14T18:36:23.226Z,17.40
2018-12-14T18:38:50.613Z,17.60
2018-12-14T18:41:18.066Z,17.33
2018-12-14T18:43:45.449Z,15.60
2018-12-14T18:46:12.928Z,17.10
2018-12-14T18:48:40.320Z,16.00
2018-12-14T18:51:07.784Z,15.27
2018-12-14T18:53:35.193Z,16.20
2018-12-14T18:56:02.657Z,15.47
2018-12-14T18:58:30.340Z,15.97
2018-12-14T19:00:57.822Z,16.17
2018-12-14T19:03:25.273Z,17.27
2018-12-14T19:05:52.844Z,15.97
2018-12-14T19:08:20.271Z,15.33
2018-12-14T19:10:47.732Z,14.67
2018-12-14T19:13:15.147Z,15.70
2018-12-14T19:15:42.640Z,15.87
2018-12-14T19:18:10.053Z,15.90
2018-12-14T19:20:37.533Z,16.73
2018-12-14T19:23:04.921Z,17.37
2018-12-14T19:25:32.365Z,17.80
2018-12-14T19:27:59.756Z,16.97
2018-12-14T19:30:27.199Z,17.23
2018-12-14T19:32:54.627Z,17.73
2018-12-14T19:35:22.071Z,18.93
2018-12-14T19:37:49.472Z,16.97
2018-12-14T19:40:16.936Z,16.40
2018-12-14T19:42:44.351Z,16.00
2018-12-14T19:45:11.928Z,16.73
2018-12-14T19:47:39.340Z,15.30
2018-12-14T19:50:07.720Z,16.47
2018-12-14T19:52:36.253Z,15.43
2018-12-14T19:55:04.650Z,16.57
2018-12-14T19:57:32.052Z,15.53
2018-12-14T19:59:59.628Z,15.40
2018-12-14T20:02:27.173Z,15.67
2018-12-14T20:04:54.868Z,16.27
2018-12-14T20:07:22.376Z,16.10
2018-12-14T20:09:50.101Z,16.50
2018-12-14T20:12:17.508Z,16.73
2018-12-14T20:14:44.948Z,16.10
2018-12-14T20:17:12.351Z,17.63
2018-12-14T20:19:39.805Z,17.30
2018-12-14T20:22:07.207Z,16.73
2018-12-14T20:24:34.824Z,16.10
2018-12-14T20:27:02.239Z,15.43
2018-12-14T20:29:29.699Z,15.43
2018-12-14T20:31:57.099Z,16.60
2018-12-14T20:34:24.504Z,17.93
2018-12-14T20:36:51.970Z,16.47
2018-12-14T20:39:19.352Z,17.87
2018-12-14T20:41:46.917Z,14.90
2018-12-14T20:44:14.337Z,18.93
2018-12-14T20:46:41.765Z,17.73
2018-12-14T20:49:09.170Z,16.17
2018-12-14T20:51:36.643Z,16.37
2018-12-14T20:54:04.065Z,15.60
2018-12-14T20:56:31.526Z,16.53
2018-12-14T20:58:58.934Z,15.43
2018-12-14T21:01:26.377Z,16.17
2018-12-14T21:03:53.791Z,16.87
2018-12-14T21:06:21.252Z,17.23
2018-12-14T21:08:48.649Z,17.33
2018-12-14T21:11:16.407Z,15.70
2018-12-14T21:13:43.864Z,16.53
2018-12-14T21:16:11.282Z,15.47
2018-12-14T21:18:38.816Z,14.57
2018-12-14T21:21:06.215Z,16.60
2018-12-14T21:23:33.656Z,20.10
2018-12-14T21:26:01.056Z,19.03
2018-12-14T21:28:29.040Z,16.83
2018-12-14T21:30:56.453Z,17.07
2018-12-14T21:33:23.901Z,17.33
2018-12-14T21:35:51.295Z,16.90
2018-12-14T21:38:18.700Z,18.13
2018-12-14T21:40:46.148Z,17.13
2018-12-14T21:43:13.800Z,16.60
2018-12-14T21:45:41.486Z,15.30
2018-12-14T21:48:08.894Z,16.03
2018-12-14T21:50:36.335Z,16.37
2018-12-14T21:53:03.852Z,17.23
2018-12-14T21:55:31.317Z,16.83
2018-12-14T21:57:58.860Z,17.30
2018-12-14T22:00:26.327Z,17.20
2018-12-14T22:02:53.740Z,15.17
2018-12-14T22:05:21.178Z,20.93
2018-12-14T22:07:48.554Z,31.00
2018-12-14T22:10:16.195Z,23.43
2018-12-14T22:12:43.572Z,19.53
2018-12-14T22:15:10.980Z,17.27
2018-12-14T22:17:38.367Z,15.37
2018-12-14T22:20:05.928Z,17.10
2018-12-14T22:22:33.321Z,24.00
2018-12-14T22:25:00.732Z,18.37
2018-12-14T22:27:28.121Z,25.23
2018-12-14T22:29:55.550Z,26.93
2018-12-14T22:32:22.940Z,23.10
2018-12-14T22:34:50.359Z,60.97
2018-12-14T22:37:17.761Z,30.13
2018-12-14T22:39:45.176Z,28.90
2018-12-14T22:42:12.566Z,25.13
2018-12-14T22:44:40.049Z,23.27
2018-12-14T22:47:07.420Z,18.67
2018-12-14T22:49:34.824Z,25.63
2018-12-14T22:52:02.380Z,15.37
2018-12-14T22:54:29.820Z,20.07
2018-12-14T22:56:57.336Z,18.43
2018-12-14T22:59:24.763Z,18.73
2018-12-14T23:01:52.190Z,22.43
2018-12-14T23:04:19.623Z,25.43
2018-12-14T23:06:47.018Z,25.80
2018-12-14T23:09:14.426Z,20.00
2018-12-14T23:11:41.875Z,19.77
2018-12-14T23:14:09.279Z,18.87
2018-12-14T23:16:36.709Z,19.20
2018-12-14T23:19:04.473Z,18.70
2018-12-14T23:21:32.813Z,18.73
2018-12-14T23:24:00.205Z,23.07
2018-12-14T23:26:27.613Z,25.33
2018-12-14T23:28:55.003Z,19.70
2018-12-14T23:31:22.411Z,20.73
2018-12-14T23:33:49.803Z,19.37
2018-12-14T23:36:17.236Z,21.30
2018-12-14T23:38:44.671Z,18.67
2018-12-14T23:41:12.107Z,21.27
2018-12-14T23:43:39.527Z,22.60
2018-12-14T23:46:06.995Z,18.03
2018-12-14T23:48:34.384Z,18.83
2018-12-14T23:51:01.832Z,18.57
2018-12-14T23:53:29.231Z,18.33
2018-12-14T23:55:56.663Z,17.80
2018-12-14T23:58:24.065Z,16.90
